Urb San Agustin, Puerto Rico
Current Conditions -  °F | °C
As of 9:56 AM on Thursday 18 Dec 2014 (Local Time) from TJSJ Reporting Station
Broken Clouds Broken Clouds  
Wind Chill: 81°   Ceiling: 9000
Heat Index: 85°   Visibility: 10mi
Dew Point: 71°   Wind: 14mph
Humidity: 72%   Direction: 30°NNE
Pressure: 30.07"   Gusts: 22mph
Location:  18.4125°N, 66.0374°W
Report Text: TJSJ 181356Z 03012G19KT 10SM FEW032 SCT038 BKN090 27/22 A3007 RMK AO2 SLP181 SHRS DSNT S SW-NW T02720217
Loading
Personal Weather Stations






























Interactive Weather Map New forecast layout! Learn more

10-Day Weather Forecast

Advertisements
Track Severe Weather on mobile